sensor_id;sensor_type;location;lat;lon;timestamp;temperature;humidity
7646;DHT22;3864;48.180;14.178;2024-03-23T00:54:52;8.40;99.90
7646;DHT22;3864;48.180;14.178;2024-03-23T00:57:19;8.40;99.90
7646;DHT22;3864;48.180;14.178;2024-03-23T00:59:49;8.40;99.90
7646;DHT22;3864;48.180;14.178;2024-03-23T01:09:44;8.30;99.90
7646;DHT22;3864;48.180;14.178;2024-03-23T01:12:12;8.30;99.90
7646;DHT22;3864;48.180;14.178;2024-03-23T01:14:43;8.20;99.90
7646;DHT22;3864;48.180;14.178;2024-03-23T01:17:11;8.20;99.90
7646;DHT22;3864;48.180;14.178;2024-03-23T01:19:37;8.30;99.90
7646;DHT22;3864;48.180;14.178;2024-03-23T01:22:05;8.30;99.90
7646;DHT22;3864;48.180;14.178;2024-03-23T01:24:31;8.30;99.90
7646;DHT22;3864;48.180;14.178;2024-03-23T01:27:00;8.30;99.90
7646;DHT22;3864;48.180;14.178;2024-03-23T01:29:26;8.30;99.90
7646;DHT22;3864;48.180;14.178;2024-03-23T01:31:53;8.30;99.90
7646;DHT22;3864;48.180;14.178;2024-03-23T01:34:19;8.40;99.90
7646;DHT22;3864;48.180;14.178;2024-03-23T01:36:46;8.40;99.90
7646;DHT22;3864;48.180;14.178;2024-03-23T01:39:12;8.30;99.90
7646;DHT22;3864;48.180;14.178;2024-03-23T01:41:40;8.30;99.90
7646;DHT22;3864;48.180;14.178;2024-03-23T01:44:48;8.30;99.90
7646;DHT22;3864;48.180;14.178;2024-03-23T01:47:15;8.30;99.90
7646;DHT22;3864;48.180;14.178;2024-03-23T01:49:41;8.20;99.90
7646;DHT22;3864;48.180;14.178;2024-03-23T01:52:09;8.30;99.90
7646;DHT22;3864;48.180;14.178;2024-03-23T01:54:35;8.20;99.90
7646;DHT22;3864;48.180;14.178;2024-03-23T01:57:02;8.10;99.90
7646;DHT22;3864;48.180;14.178;2024-03-23T01:59:29;8.10;99.90
7646;DHT22;3864;48.180;14.178;2024-03-23T02:01:57;8.10;99.90
7646;DHT22;3864;48.180;14.178;2024-03-23T02:04:23;8.10;99.90
7646;DHT22;3864;48.180;14.178;2024-03-23T02:06:51;8.20;99.90
7646;DHT22;3864;48.180;14.178;2024-03-23T02:09:17;8.20;99.90
7646;DHT22;3864;48.180;14.178;2024-03-23T02:11:44;8.20;99.90
7646;DHT22;3864;48.180;14.178;2024-03-23T02:14:10;8.20;99.90
7646;DHT22;3864;48.180;14.178;2024-03-23T02:16:37;8.20;99.90
7646;DHT22;3864;48.180;14.178;2024-03-23T02:19:05;8.20;99.90
7646;DHT22;3864;48.180;14.178;2024-03-23T02:21:32;8.20;99.90
7646;DHT22;3864;48.180;14.178;2024-03-23T02:24:01;8.20;99.90
7646;DHT22;3864;48.180;14.178;2024-03-23T02:26:28;8.20;99.90
7646;DHT22;3864;48.180;14.178;2024-03-23T02:28:54;8.20;99.90
7646;DHT22;3864;48.180;14.178;2024-03-23T02:31:21;8.20;99.90
7646;DHT22;3864;48.180;14.178;2024-03-23T02:33:47;8.10;99.90
7646;DHT22;3864;48.180;14.178;2024-03-23T02:36:14;8.00;99.90
7646;DHT22;3864;48.180;14.178;2024-03-23T02:38:40;7.90;99.90
7646;DHT22;3864;48.180;14.178;2024-03-23T02:41:09;7.90;99.90
7646;DHT22;3864;48.180;14.178;2024-03-23T02:43:35;7.80;99.90
7646;DHT22;3864;48.180;14.178;2024-03-23T02:46:03;7.80;99.90
7646;DHT22;3864;48.180;14.178;2024-03-23T02:48:30;7.70;99.90
7646;DHT22;3864;48.180;14.178;2024-03-23T02:50:57;7.60;99.90
7646;DHT22;3864;48.180;14.178;2024-03-23T02:53:23;7.50;99.90
7646;DHT22;3864;48.180;14.178;2024-03-23T02:55:50;7.40;99.90
7646;DHT22;3864;48.180;14.178;2024-03-23T02:58:18;7.30;99.90
7646;DHT22;3864;48.180;14.178;2024-03-23T03:00:45;7.10;99.90
7646;DHT22;3864;48.180;14.178;2024-03-23T03:03:11;7.00;99.90
7646;DHT22;3864;48.180;14.178;2024-03-23T03:05:38;6.90;99.90
7646;DHT22;3864;48.180;14.178;2024-03-23T03:08:05;6.90;99.90
7646;DHT22;3864;48.180;14.178;2024-03-23T03:10:32;6.90;99.90
7646;DHT22;3864;48.180;14.178;2024-03-23T03:13:00;6.80;99.90
7646;DHT22;3864;48.180;14.178;2024-03-23T03:15:29;6.90;99.90
7646;DHT22;3864;48.180;14.178;2024-03-23T03:17:55;6.80;99.90
7646;DHT22;3864;48.180;14.178;2024-03-23T03:20:22;6.70;99.90
7646;DHT22;3864;48.180;14.178;2024-03-23T03:22:49;6.60;99.90
7646;DHT22;3864;48.180;14.178;2024-03-23T03:25:18;6.40;99.90
7646;DHT22;3864;48.180;14.178;2024-03-23T03:27:44;6.30;99.90
7646;DHT22;3864;48.180;14.178;2024-03-23T03:30:12;6.20;99.90
7646;DHT22;3864;48.180;14.178;2024-03-23T03:32:40;6.10;99.90
7646;DHT22;3864;48.180;14.178;2024-03-23T03:35:07;6.00;99.90
7646;DHT22;3864;48.180;14.178;2024-03-23T03:37:33;6.00;99.90
7646;DHT22;3864;48.180;14.178;2024-03-23T03:40:00;6.00;99.90
7646;DHT22;3864;48.180;14.178;2024-03-23T03:42:26;5.90;99.90
7646;DHT22;3864;48.180;14.178;2024-03-23T03:44:53;5.90;99.90
7646;DHT22;3864;48.180;14.178;2024-03-23T03:47:20;5.90;99.90
7646;DHT22;3864;48.180;14.178;2024-03-23T03:49:49;5.80;99.90
7646;DHT22;3864;48.180;14.178;2024-03-23T03:52:15;5.70;99.90
7646;DHT22;3864;48.180;14.178;2024-03-23T03:54:42;5.70;99.90
7646;DHT22;3864;48.180;14.178;2024-03-23T03:57:08;5.70;99.90
7646;DHT22;3864;48.180;14.178;2024-03-23T03:59:35;5.70;99.90
7646;DHT22;3864;48.180;14.178;2024-03-23T04:02:02;5.70;99.90
7646;DHT22;3864;48.180;14.178;2024-03-23T04:04:29;5.70;99.90
7646;DHT22;3864;48.180;14.178;2024-03-23T04:10:31;5.60;99.90
7646;DHT22;3864;48.180;14.178;2024-03-23T04:12:59;5.50;99.90
7646;DHT22;3864;48.180;14.178;2024-03-23T04:15:25;5.50;99.90
7646;DHT22;3864;48.180;14.178;2024-03-23T04:17:52;5.50;99.90
7646;DHT22;3864;48.180;14.178;2024-03-23T04:20:18;5.40;99.90
7646;DHT22;3864;48.180;14.178;2024-03-23T04:22:46;5.30;99.90
7646;DHT22;3864;48.180;14.178;2024-03-23T04:25:14;5.30;99.90
7646;DHT22;3864;48.180;14.178;2024-03-23T04:27:43;5.20;99.90
7646;DHT22;3864;48.180;14.178;2024-03-23T04:30:10;5.20;99.90
7646;DHT22;3864;48.180;14.178;2024-03-23T04:32:37;5.20;99.90
7646;DHT22;3864;48.180;14.178;2024-03-23T04:35:04;5.10;99.90
7646;DHT22;3864;48.180;14.178;2024-03-23T04:37:35;5.00;99.90
7646;DHT22;3864;48.180;14.178;2024-03-23T04:40:03;4.90;99.90
7646;DHT22;3864;48.180;14.178;2024-03-23T04:42:30;4.80;99.90
7646;DHT22;3864;48.180;14.178;2024-03-23T04:44:59;4.80;99.90
7646;DHT22;3864;48.180;14.178;2024-03-23T04:47:27;4.80;99.90
7646;DHT22;3864;48.180;14.178;2024-03-23T04:49:54;4.80;99.90
7646;DHT22;3864;48.180;14.178;2024-03-23T04:52:21;4.80;99.90
7646;DHT22;3864;48.180;14.178;2024-03-23T04:54:48;4.70;99.90
7646;DHT22;3864;48.180;14.178;2024-03-23T04:57:15;4.70;99.90
7646;DHT22;3864;48.180;14.178;2024-03-23T04:59:43;4.70;99.90
7646;DHT22;3864;48.180;14.178;2024-03-23T05:02:11;4.70;99.90
7646;DHT22;3864;48.180;14.178;2024-03-23T05:04:38;4.60;99.90
7646;DHT22;3864;48.180;14.178;2024-03-23T05:07:04;4.50;99.90
7646;DHT22;3864;48.180;14.178;2024-03-23T05:09:31;4.40;99.90
7646;DHT22;3864;48.180;14.178;2024-03-23T05:11:58;4.30;99.90
7646;DHT22;3864;48.180;14.178;2024-03-23T05:14:26;4.30;99.90
7646;DHT22;3864;48.180;14.178;2024-03-23T05:16:52;4.20;99.90
7646;DHT22;3864;48.180;14.178;2024-03-23T05:19:21;4.20;99.90
7646;DHT22;3864;48.180;14.178;2024-03-23T05:21:48;4.20;99.90
7646;DHT22;3864;48.180;14.178;2024-03-23T05:24:15;4.40;99.90
7646;DHT22;3864;48.180;14.178;2024-03-23T05:26:41;4.40;99.90
7646;DHT22;3864;48.180;14.178;2024-03-23T05:29:08;4.30;99.90
7646;DHT22;3864;48.180;14.178;2024-03-23T05:31:36;4.30;99.90
7646;DHT22;3864;48.180;14.178;2024-03-23T05:34:04;4.30;99.90
7646;DHT22;3864;48.180;14.178;2024-03-23T05:36:32;4.30;99.90
7646;DHT22;3864;48.180;14.178;2024-03-23T05:38:59;4.40;99.90
7646;DHT22;3864;48.180;14.178;2024-03-23T05:41:25;4.50;99.90
7646;DHT22;3864;48.180;14.178;2024-03-23T05:43:52;4.60;99.90
7646;DHT22;3864;48.180;14.178;2024-03-23T05:46:18;4.60;99.90
7646;DHT22;3864;48.180;14.178;2024-03-23T05:48:46;4.50;99.90
7646;DHT22;3864;48.180;14.178;2024-03-23T05:51:13;4.50;99.90
7646;DHT22;3864;48.180;14.178;2024-03-23T05:53:41;4.40;99.90
7646;DHT22;3864;48.180;14.178;2024-03-23T05:56:08;4.40;99.90
7646;DHT22;3864;48.180;14.178;2024-03-23T05:58:34;4.40;99.90
7646;DHT22;3864;48.180;14.178;2024-03-23T06:01:02;4.30;99.90
7646;DHT22;3864;48.180;14.178;2024-03-23T06:03:28;4.30;99.90
7646;DHT22;3864;48.180;14.178;2024-03-23T06:05:56;4.30;99.90
7646;DHT22;3864;48.180;14.178;2024-03-23T06:08:22;4.30;99.90
7646;DHT22;3864;48.180;14.178;2024-03-23T06:10:51;4.40;99.90
7646;DHT22;3864;48.180;14.178;2024-03-23T06:13:17;4.60;99.90
7646;DHT22;3864;48.180;14.178;2024-03-23T06:15:45;4.80;99.90
7646;DHT22;3864;48.180;14.178;2024-03-23T06:18:12;4.90;99.90
7646;DHT22;3864;48.180;14.178;2024-03-23T06:20:39;4.90;99.90
7646;DHT22;3864;48.180;14.178;2024-03-23T06:23:05;5.00;99.90
7646;DHT22;3864;48.180;14.178;2024-03-23T06:25:32;5.10;99.90
7646;DHT22;3864;48.180;14.178;2024-03-23T06:28:00;5.10;99.90
7646;DHT22;3864;48.180;14.178;2024-03-23T06:30:29;5.10;99.90
7646;DHT22;3864;48.180;14.178;2024-03-23T06:32:55;5.20;99.90
7646;DHT22;3864;48.180;14.178;2024-03-23T06:35:22;5.20;99.90
7646;DHT22;3864;48.180;14.178;2024-03-23T06:37:49;5.30;99.90
7646;DHT22;3864;48.180;14.178;2024-03-23T06:40:16;5.30;99.90
7646;DHT22;3864;48.180;14.178;2024-03-23T06:42:42;5.40;99.90
7646;DHT22;3864;48.180;14.178;2024-03-23T06:45:12;5.40;99.90
7646;DHT22;3864;48.180;14.178;2024-03-23T06:47:38;5.50;99.90
7646;DHT22;3864;48.180;14.178;2024-03-23T06:50:06;5.50;99.90
7646;DHT22;3864;48.180;14.178;2024-03-23T06:52:33;5.60;99.90
7646;DHT22;3864;48.180;14.178;2024-03-23T06:54:59;5.60;99.90
7646;DHT22;3864;48.180;14.178;2024-03-23T06:57:26;5.70;99.90
7646;DHT22;3864;48.180;14.178;2024-03-23T06:59:52;5.80;99.90
7646;DHT22;3864;48.180;14.178;2024-03-23T07:02:21;5.80;99.90
7646;DHT22;3864;48.180;14.178;2024-03-23T07:04:47;6.00;99.90
7646;DHT22;3864;48.180;14.178;2024-03-23T07:07:14;6.10;99.90
7646;DHT22;3864;48.180;14.178;2024-03-23T07:09:40;6.50;99.90
7646;DHT22;3864;48.180;14.178;2024-03-23T07:12:08;6.60;99.90
7646;DHT22;3864;48.180;14.178;2024-03-23T07:14:34;6.80;99.90
7646;DHT22;3864;48.180;14.178;2024-03-23T07:20:38;7.30;99.90
7646;DHT22;3864;48.180;14.178;2024-03-23T07:23:04;7.40;99.90
7646;DHT22;3864;48.180;14.178;2024-03-23T07:25:31;7.50;99.90
7646;DHT22;3864;48.180;14.178;2024-03-23T07:27:57;7.60;99.90
7646;DHT22;3864;48.180;14.178;2024-03-23T07:30:25;7.70;99.90
7646;DHT22;3864;48.180;14.178;2024-03-23T07:36:21;8.30;99.90
7646;DHT22;3864;48.180;14.178;2024-03-23T07:38:48;8.50;99.90
7646;DHT22;3864;48.180;14.178;2024-03-23T07:41:15;8.50;99.90
7646;DHT22;3864;48.180;14.178;2024-03-23T07:43:46;8.70;99.90
7646;DHT22;3864;48.180;14.178;2024-03-23T07:46:15;8.80;99.90
7646;DHT22;3864;48.180;14.178;2024-03-23T07:48:44;8.90;99.90
7646;DHT22;3864;48.180;14.178;2024-03-23T07:51:16;8.90;99.90
7646;DHT22;3864;48.180;14.178;2024-03-23T07:53:46;9.10;99.90
7646;DHT22;3864;48.180;14.178;2024-03-23T07:56:13;9.30;99.90
7646;DHT22;3864;48.180;14.178;2024-03-23T07:58:41;9.50;99.90
7646;DHT22;3864;48.180;14.178;2024-03-23T08:01:07;9.80;99.90
7646;DHT22;3864;48.180;14.178;2024-03-23T08:06:51;10.30;99.90
7646;DHT22;3864;48.180;14.178;2024-03-23T08:09:20;10.50;99.90
7646;DHT22;3864;48.180;14.178;2024-03-23T08:11:46;10.50;99.90
7646;DHT22;3864;48.180;14.178;2024-03-23T08:14:13;10.50;99.90
7646;DHT22;3864;48.180;14.178;2024-03-23T08:16:39;10.60;99.90
7646;DHT22;3864;48.180;14.178;2024-03-23T08:22:14;11.00;99.90
7646;DHT22;3864;48.180;14.178;2024-03-23T08:24:43;11.20;99.90
7646;DHT22;3864;48.180;14.178;2024-03-23T08:27:09;11.30;99.90
7646;DHT22;3864;48.180;14.178;2024-03-23T08:29:37;11.60;99.90
7646;DHT22;3864;48.180;14.178;2024-03-23T08:33:06;12.20;99.90
7646;DHT22;3864;48.180;14.178;2024-03-23T08:35:53;12.20;99.90
7646;DHT22;3864;48.180;14.178;2024-03-23T08:38:21;12.50;99.90
7646;DHT22;3864;48.180;14.178;2024-03-23T08:40:56;12.80;99.90
7646;DHT22;3864;48.180;14.178;2024-03-23T08:43:24;13.00;99.90
7646;DHT22;3864;48.180;14.178;2024-03-23T08:45:50;13.20;99.90
7646;DHT22;3864;48.180;14.178;2024-03-23T08:48:18;13.40;99.90
7646;DHT22;3864;48.180;14.178;2024-03-23T08:50:46;13.60;99.90
7646;DHT22;3864;48.180;14.178;2024-03-23T08:53:14;13.80;99.90
7646;DHT22;3864;48.180;14.178;2024-03-23T08:55:40;13.80;99.90
7646;DHT22;3864;48.180;14.178;2024-03-23T08:58:09;13.90;99.90
7646;DHT22;3864;48.180;14.178;2024-03-23T09:00:35;14.10;99.90
7646;DHT22;3864;48.180;14.178;2024-03-23T09:03:03;14.60;99.90
7646;DHT22;3864;48.180;14.178;2024-03-23T09:05:30;14.90;99.90
7646;DHT22;3864;48.180;14.178;2024-03-23T09:08:02;15.50;99.90
7646;DHT22;3864;48.180;14.178;2024-03-23T09:10:28;16.10;99.90
7646;DHT22;3864;48.180;14.178;2024-03-23T09:12:55;16.50;99.90
7646;DHT22;3864;48.180;14.178;2024-03-23T09:15:23;16.80;99.90
7646;DHT22;3864;48.180;14.178;2024-03-23T09:17:50;17.20;99.90
7646;DHT22;3864;48.180;14.178;2024-03-23T09:20:16;17.50;99.90
7646;DHT22;3864;48.180;14.178;2024-03-23T09:22:43;17.70;99.90
7646;DHT22;3864;48.180;14.178;2024-03-23T09:25:09;18.20;99.90
7646;DHT22;3864;48.180;14.178;2024-03-23T09:27:36;18.70;99.90
7646;DHT22;3864;48.180;14.178;2024-03-23T09:30:03;19.10;99.90
7646;DHT22;3864;48.180;14.178;2024-03-23T09:32:32;19.70;99.90
7646;DHT22;3864;48.180;14.178;2024-03-23T09:34:58;19.70;99.90
7646;DHT22;3864;48.180;14.178;2024-03-23T09:37:26;20.30;99.90
7646;DHT22;3864;48.180;14.178;2024-03-23T09:39:52;20.70;99.90
7646;DHT22;3864;48.180;14.178;2024-03-23T09:42:19;21.00;99.90
7646;DHT22;3864;48.180;14.178;2024-03-23T09:44:45;21.70;99.90
7646;DHT22;3864;48.180;14.178;2024-03-23T09:47:13;22.20;99.90
7646;DHT22;3864;48.180;14.178;2024-03-23T09:49:41;22.20;99.90
7646;DHT22;3864;48.180;14.178;2024-03-23T09:52:08;21.70;99.90
7646;DHT22;3864;48.180;14.178;2024-03-23T09:54:34;21.70;99.90
7646;DHT22;3864;48.180;14.178;2024-03-23T09:57:01;21.60;99.90
7646;DHT22;3864;48.180;14.178;2024-03-23T09:59:29;20.90;99.90
7646;DHT22;3864;48.180;14.178;2024-03-23T10:01:56;20.40;99.90
7646;DHT22;3864;48.180;14.178;2024-03-23T10:04:40;20.30;99.90
7646;DHT22;3864;48.180;14.178;2024-03-23T10:07:11;19.70;99.90
7646;DHT22;3864;48.180;14.178;2024-03-23T10:09:38;18.90;99.90
7646;DHT22;3864;48.180;14.178;2024-03-23T10:12:10;18.70;99.90
7646;DHT22;3864;48.180;14.178;2024-03-23T10:14:36;18.40;99.90
7646;DHT22;3864;48.180;14.178;2024-03-23T10:17:13;17.80;99.90
7646;DHT22;3864;48.180;14.178;2024-03-23T10:19:42;17.10;99.90
7646;DHT22;3864;48.180;14.178;2024-03-23T10:22:10;16.50;99.90
7646;DHT22;3864;48.180;14.178;2024-03-23T10:24:36;16.30;99.90
7646;DHT22;3864;48.180;14.178;2024-03-23T10:27:03;16.10;99.90
7646;DHT22;3864;48.180;14.178;2024-03-23T10:29:29;15.70;99.90
7646;DHT22;3864;48.180;14.178;2024-03-23T10:32:08;15.40;99.90
7646;DHT22;3864;48.180;14.178;2024-03-23T10:34:34;15.00;99.90
7646;DHT22;3864;48.180;14.178;2024-03-23T10:37:04;15.30;99.90
7646;DHT22;3864;48.180;14.178;2024-03-23T10:39:35;15.10;99.90
7646;DHT22;3864;48.180;14.178;2024-03-23T10:42:03;14.40;99.90
7646;DHT22;3864;48.180;14.178;2024-03-23T10:44:30;14.10;99.90
7646;DHT22;3864;48.180;14.178;2024-03-23T10:46:58;14.50;99.90
7646;DHT22;3864;48.180;14.178;2024-03-23T10:49:26;14.70;99.90
7646;DHT22;3864;48.180;14.178;2024-03-23T10:51:56;14.80;99.90
7646;DHT22;3864;48.180;14.178;2024-03-23T10:54:24;15.20;99.90
7646;DHT22;3864;48.180;14.178;2024-03-23T10:56:56;15.20;99.90
7646;DHT22;3864;48.180;14.178;2024-03-23T10:59:24;14.90;99.90
7646;DHT22;3864;48.180;14.178;2024-03-23T11:01:55;14.70;99.90
7646;DHT22;3864;48.180;14.178;2024-03-23T11:04:32;14.40;99.90
7646;DHT22;3864;48.180;14.178;2024-03-23T11:06:59;14.00;99.90
7646;DHT22;3864;48.180;14.178;2024-03-23T11:09:43;13.60;99.90
7646;DHT22;3864;48.180;14.178;2024-03-23T11:12:30;13.30;99.90
7646;DHT22;3864;48.180;14.178;2024-03-23T11:15:02;13.20;99.90
7646;DHT22;3864;48.180;14.178;2024-03-23T11:17:30;13.10;99.90
7646;DHT22;3864;48.180;14.178;2024-03-23T11:19:57;12.70;99.90
7646;DHT22;3864;48.180;14.178;2024-03-23T11:22:41;12.50;99.90
7646;DHT22;3864;48.180;14.178;2024-03-23T11:25:28;12.40;99.90
7646;DHT22;3864;48.180;14.178;2024-03-23T11:31:14;12.00;99.90
7646;DHT22;3864;48.180;14.178;2024-03-23T11:33:42;11.70;99.90
7646;DHT22;3864;48.180;14.178;2024-03-23T11:36:08;11.60;99.90
7646;DHT22;3864;48.180;14.178;2024-03-23T11:38:36;11.40;99.90
7646;DHT22;3864;48.180;14.178;2024-03-23T11:41:05;11.20;99.90
7646;DHT22;3864;48.180;14.178;2024-03-23T11:43:32;11.10;99.90
7646;DHT22;3864;48.180;14.178;2024-03-23T11:45:58;10.90;99.90
7646;DHT22;3864;48.180;14.178;2024-03-23T11:48:28;10.90;99.90
7646;DHT22;3864;48.180;14.178;2024-03-23T11:50:57;10.90;99.90
7646;DHT22;3864;48.180;14.178;2024-03-23T11:53:25;10.80;99.90
7646;DHT22;3864;48.180;14.178;2024-03-23T11:55:54;10.80;99.90
7646;DHT22;3864;48.180;14.178;2024-03-23T11:58:25;10.70;99.90
7646;DHT22;3864;48.180;14.178;2024-03-23T12:00:52;10.70;99.90
7646;DHT22;3864;48.180;14.178;2024-03-23T12:03:20;10.70;99.90
7646;DHT22;3864;48.180;14.178;2024-03-23T12:05:50;10.60;99.90
7646;DHT22;3864;48.180;14.178;2024-03-23T12:08:23;10.60;99.90
7646;DHT22;3864;48.180;14.178;2024-03-23T12:10:53;10.50;99.90
7646;DHT22;3864;48.180;14.178;2024-03-23T12:13:33;10.40;99.90
7646;DHT22;3864;48.180;14.178;2024-03-23T12:16:10;10.30;99.90
7646;DHT22;3864;48.180;14.178;2024-03-23T12:19:44;10.20;99.90
7646;DHT22;3864;48.180;14.178;2024-03-23T12:22:12;10.00;99.90
7646;DHT22;3864;48.180;14.178;2024-03-23T12:24:38;10.00;99.90
7646;DHT22;3864;48.180;14.178;2024-03-23T12:57:14;9.30;99.90
7646;DHT22;3864;48.180;14.178;2024-03-23T13:06:51;9.00;99.90
7646;DHT22;3864;48.180;14.178;2024-03-23T13:09:46;8.90;99.90
7646;DHT22;3864;48.180;14.178;2024-03-23T13:15:33;8.90;99.90
7646;DHT22;3864;48.180;14.178;2024-03-23T13:18:34;8.80;99.90
7646;DHT22;3864;48.180;14.178;2024-03-23T13:21:25;8.80;99.90
7646;DHT22;3864;48.180;14.178;2024-03-23T13:23:53;8.70;99.90
7646;DHT22;3864;48.180;14.178;2024-03-23T13:26:19;8.60;99.90
7646;DHT22;3864;48.180;14.178;2024-03-23T13:28:46;8.50;99.90
7646;DHT22;3864;48.180;14.178;2024-03-23T13:31:14;8.30;99.90
7646;DHT22;3864;48.180;14.178;2024-03-23T13:33:41;8.20;99.90
7646;DHT22;3864;48.180;14.178;2024-03-23T13:36:09;8.30;99.90
7646;DHT22;3864;48.180;14.178;2024-03-23T13:38:36;8.30;99.90
7646;DHT22;3864;48.180;14.178;2024-03-23T13:41:03;8.30;99.90
7646;DHT22;3864;48.180;14.178;2024-03-23T13:43:32;8.40;99.90
7646;DHT22;3864;48.180;14.178;2024-03-23T13:45:59;8.60;99.90
7646;DHT22;3864;48.180;14.178;2024-03-23T13:48:28;8.70;99.90
7646;DHT22;3864;48.180;14.178;2024-03-23T13:50:58;8.90;99.90
7646;DHT22;3864;48.180;14.178;2024-03-23T13:53:25;9.00;99.90
7646;DHT22;3864;48.180;14.178;2024-03-23T13:55:51;9.00;99.90
7646;DHT22;3864;48.180;14.178;2024-03-23T13:58:18;9.00;99.90
7646;DHT22;3864;48.180;14.178;2024-03-23T14:00:45;9.00;99.90
7646;DHT22;3864;48.180;14.178;2024-03-23T14:03:12;9.00;99.90
7646;DHT22;3864;48.180;14.178;2024-03-23T14:05:41;9.00;99.90
7646;DHT22;3864;48.180;14.178;2024-03-23T14:08:09;9.10;99.90
7646;DHT22;3864;48.180;14.178;2024-03-23T14:10:35;9.10;99.90
7646;DHT22;3864;48.180;14.178;2024-03-23T14:13:03;9.10;99.90
7646;DHT22;3864;48.180;14.178;2024-03-23T14:15:29;9.10;99.90
7646;DHT22;3864;48.180;14.178;2024-03-23T14:17:57;9.10;99.90
7646;DHT22;3864;48.180;14.178;2024-03-23T14:20:23;9.20;99.90
7646;DHT22;3864;48.180;14.178;2024-03-23T14:22:53;9.20;99.90
7646;DHT22;3864;48.180;14.178;2024-03-23T14:29:45;9.20;99.90
7646;DHT22;3864;48.180;14.178;2024-03-23T14:32:12;9.20;99.90
7646;DHT22;3864;48.180;14.178;2024-03-23T14:34:38;9.10;99.90
7646;DHT22;3864;48.180;14.178;2024-03-23T14:37:05;9.10;99.90
7646;DHT22;3864;48.180;14.178;2024-03-23T14:39:34;9.10;99.90
7646;DHT22;3864;48.180;14.178;2024-03-23T14:42:01;9.10;99.90
7646;DHT22;3864;48.180;14.178;2024-03-23T14:44:27;9.00;99.90
7646;DHT22;3864;48.180;14.178;2024-03-23T14:46:57;9.10;99.90
7646;DHT22;3864;48.180;14.178;2024-03-23T14:49:23;9.10;99.90
7646;DHT22;3864;48.180;14.178;2024-03-23T14:51:51;9.10;99.90
7646;DHT22;3864;48.180;14.178;2024-03-23T14:54:17;9.10;99.90
7646;DHT22;3864;48.180;14.178;2024-03-23T14:56:46;9.10;99.90
7646;DHT22;3864;48.180;14.178;2024-03-23T14:59:13;9.10;99.90
7646;DHT22;3864;48.180;14.178;2024-03-23T15:01:40;9.00;99.90
7646;DHT22;3864;48.180;14.178;2024-03-23T15:04:07;8.80;99.90
7646;DHT22;3864;48.180;14.178;2024-03-23T15:06:34;8.80;99.90
7646;DHT22;3864;48.180;14.178;2024-03-23T15:09:00;8.80;99.90
7646;DHT22;3864;48.180;14.178;2024-03-23T15:11:32;8.60;99.90
7646;DHT22;3864;48.180;14.178;2024-03-23T15:14:00;8.50;99.90
7646;DHT22;3864;48.180;14.178;2024-03-23T15:16:27;8.50;99.90
7646;DHT22;3864;48.180;14.178;2024-03-23T15:18:53;8.40;99.90
7646;DHT22;3864;48.180;14.178;2024-03-23T15:21:20;8.40;99.90
7646;DHT22;3864;48.180;14.178;2024-03-23T15:23:47;8.40;99.90
7646;DHT22;3864;48.180;14.178;2024-03-23T15:26:14;8.50;99.90
7646;DHT22;3864;48.180;14.178;2024-03-23T15:28:41;8.50;99.90
7646;DHT22;3864;48.180;14.178;2024-03-23T15:31:30;8.50;99.90
7646;DHT22;3864;48.180;14.178;2024-03-23T15:37:14;8.40;99.90
7646;DHT22;3864;48.180;14.178;2024-03-23T15:39:40;8.40;99.90
7646;DHT22;3864;48.180;14.178;2024-03-23T15:42:08;8.30;99.90
7646;DHT22;3864;48.180;14.178;2024-03-23T15:44:34;8.30;99.90
7646;DHT22;3864;48.180;14.178;2024-03-23T15:47:03;8.30;99.90
7646;DHT22;3864;48.180;14.178;2024-03-23T15:49:29;8.30;99.90
7646;DHT22;3864;48.180;14.178;2024-03-23T15:51:56;8.30;99.90
7646;DHT22;3864;48.180;14.178;2024-03-23T15:54:23;8.20;99.90
7646;DHT22;3864;48.180;14.178;2024-03-23T15:56:50;8.20;99.90
7646;DHT22;3864;48.180;14.178;2024-03-23T15:59:16;8.10;99.90
7646;DHT22;3864;48.180;14.178;2024-03-23T16:01:43;8.10;99.90
7646;DHT22;3864;48.180;14.178;2024-03-23T16:04:12;8.00;99.90
7646;DHT22;3864;48.180;14.178;2024-03-23T16:06:39;8.00;99.90
7646;DHT22;3864;48.180;14.178;2024-03-23T16:09:07;8.00;99.90
7646;DHT22;3864;48.180;14.178;2024-03-23T16:11:34;8.00;99.90
7646;DHT22;3864;48.180;14.178;2024-03-23T16:14:01;8.00;99.90
7646;DHT22;3864;48.180;14.178;2024-03-23T16:16:28;7.90;99.90
7646;DHT22;3864;48.180;14.178;2024-03-23T16:18:54;7.80;99.90
7646;DHT22;3864;48.180;14.178;2024-03-23T16:21:23;7.50;99.90
7646;DHT22;3864;48.180;14.178;2024-03-23T16:23:49;7.10;99.90
7646;DHT22;3864;48.180;14.178;2024-03-23T16:26:16;6.90;99.90
7646;DHT22;3864;48.180;14.178;2024-03-23T16:28:42;6.70;99.90
7646;DHT22;3864;48.180;14.178;2024-03-23T16:31:11;6.60;99.90
7646;DHT22;3864;48.180;14.178;2024-03-23T16:33:38;6.60;99.90
7646;DHT22;3864;48.180;14.178;2024-03-23T16:36:06;6.50;99.90
7646;DHT22;3864;48.180;14.178;2024-03-23T16:38:34;6.50;99.90
7646;DHT22;3864;48.180;14.178;2024-03-23T16:41:03;6.40;99.90
7646;DHT22;3864;48.180;14.178;2024-03-23T16:43:30;6.10;99.90
7646;DHT22;3864;48.180;14.178;2024-03-23T16:45:59;5.80;99.90
7646;DHT22;3864;48.180;14.178;2024-03-23T16:48:27;5.60;99.90
7646;DHT22;3864;48.180;14.178;2024-03-23T16:50:57;5.40;99.90
7646;DHT22;3864;48.180;14.178;2024-03-23T16:53:24;5.30;99.90
7646;DHT22;3864;48.180;14.178;2024-03-23T16:55:56;5.10;99.90
7646;DHT22;3864;48.180;14.178;2024-03-23T16:58:23;5.00;99.90
7646;DHT22;3864;48.180;14.178;2024-03-23T17:00:50;4.90;99.90
7646;DHT22;3864;48.180;14.178;2024-03-23T17:03:18;4.80;99.90
7646;DHT22;3864;48.180;14.178;2024-03-23T17:05:46;4.70;99.90
7646;DHT22;3864;48.180;14.178;2024-03-23T17:08:12;4.60;99.90
7646;DHT22;3864;48.180;14.178;2024-03-23T17:10:39;4.60;99.90
7646;DHT22;3864;48.180;14.178;2024-03-23T17:13:07;4.50;99.90
7646;DHT22;3864;48.180;14.178;2024-03-23T17:15:42;4.50;99.90
7646;DHT22;3864;48.180;14.178;2024-03-23T17:18:08;4.50;99.90
7646;DHT22;3864;48.180;14.178;2024-03-23T17:20:35;4.50;99.90
7646;DHT22;3864;48.180;14.178;2024-03-23T17:23:01;4.50;99.90
7646;DHT22;3864;48.180;14.178;2024-03-23T17:25:29;4.50;99.90
7646;DHT22;3864;48.180;14.178;2024-03-23T17:27:55;4.50;99.90
7646;DHT22;3864;48.180;14.178;2024-03-23T17:30:24;4.50;99.90
7646;DHT22;3864;48.180;14.178;2024-03-23T17:32:51;4.50;99.90
7646;DHT22;3864;48.180;14.178;2024-03-23T17:35:19;4.50;99.90
7646;DHT22;3864;48.180;14.178;2024-03-23T17:37:45;4.60;99.90
7646;DHT22;3864;48.180;14.178;2024-03-23T17:40:12;4.60;99.90
7646;DHT22;3864;48.180;14.178;2024-03-23T17:42:40;4.70;99.90
7646;DHT22;3864;48.180;14.178;2024-03-23T17:45:08;4.80;99.90
7646;DHT22;3864;48.180;14.178;2024-03-23T17:47:39;4.80;99.90
7646;DHT22;3864;48.180;14.178;2024-03-23T17:50:07;4.80;99.90
7646;DHT22;3864;48.180;14.178;2024-03-23T17:52:34;4.80;99.90
7646;DHT22;3864;48.180;14.178;2024-03-23T17:55:02;4.80;99.90
7646;DHT22;3864;48.180;14.178;2024-03-23T17:57:28;4.80;99.90
7646;DHT22;3864;48.180;14.178;2024-03-23T17:59:56;4.70;99.90
7646;DHT22;3864;48.180;14.178;2024-03-23T18:02:22;4.70;99.90
7646;DHT22;3864;48.180;14.178;2024-03-23T18:04:51;4.70;99.90
7646;DHT22;3864;48.180;14.178;2024-03-23T18:07:17;4.70;99.90
7646;DHT22;3864;48.180;14.178;2024-03-23T18:09:44;4.60;99.90
7646;DHT22;3864;48.180;14.178;2024-03-23T18:12:10;4.50;99.90
7646;DHT22;3864;48.180;14.178;2024-03-23T18:14:38;4.40;99.90